Time;durP1;ratioP1;P1;durP2;ratioP2;P2;SDS_P1;SDS_P2;PMS_P1;PMS_P2;Temp;Humidity;BMP_temperature;BMP_pressure;BME280_temperature;BME280_humidity;BME280_pressure;Samples;Min_cycle;Max_cycle;Signal;HPM_P1;HPM_P2
2020/12/09 00:00:17;;;;;;;43.27;17.97;;;-2.00;99.90;;;;;;4860248;29;20201;-91
2020/12/09 00:02:42;;;;;;;39.53;18.53;;;-2.00;99.90;;;;;;4859940;29;20218;-91
2020/12/09 00:05:12;;;;;;;34.87;17.33;;;-2.00;99.90;;;;;;4859864;29;20333;-91
2020/12/09 00:07:38;;;;;;;40.47;17.93;;;-2.00;99.90;;;;;;4861188;29;20214;-90
2020/12/09 00:10:06;;;;;;;40.70;17.77;;;-2.00;99.90;;;;;;4861029;29;20190;-90
2020/12/09 00:12:31;;;;;;;45.97;19.73;;;-2.00;99.90;;;;;;4861192;29;20197;-91
2020/12/09 00:15:02;;;;;;;35.13;16.93;;;-2.00;99.90;;;;;;4860283;29;20189;-91
2020/12/09 00:17:30;;;;;;;44.97;18.90;;;-2.00;99.90;;;;;;4861195;29;20205;-90
2020/12/09 00:19:56;;;;;;;40.30;17.90;;;-0.90;99.90;;;;;;4861231;29;20190;-91
2020/12/09 00:22:23;;;;;;;34.17;16.07;;;-1.90;99.90;;;;;;4860053;29;20660;-91
2020/12/09 00:24:52;;;;;;;35.93;16.67;;;-2.00;99.90;;;;;;4861217;29;20185;-91
2020/12/09 00:27:17;;;;;;;35.90;15.73;;;-2.10;99.90;;;;;;4861067;29;20217;-91
2020/12/09 00:29:43;;;;;;;35.43;17.23;;;-2.10;99.90;;;;;;4860943;29;20560;-91
2020/12/09 00:32:09;;;;;;;39.10;16.63;;;-2.00;99.90;;;;;;4859870;29;20270;-91
2020/12/09 00:34:34;;;;;;;27.80;14.37;;;-2.00;99.90;;;;;;4861311;29;20173;-89
2020/12/09 00:37:00;;;;;;;36.03;15.87;;;-2.00;99.90;;;;;;4861066;29;20277;-90
2020/12/09 00:39:26;;;;;;;29.07;15.90;;;-2.00;99.90;;;;;;4859926;29;20197;-90
2020/12/09 00:41:51;;;;;;;39.87;18.37;;;-2.10;99.90;;;;;;4860222;29;20195;-90
2020/12/09 00:44:17;;;;;;;43.53;16.13;;;-2.00;99.90;;;;;;4861481;29;20743;-91
2020/12/09 00:46:43;;;;;;;49.90;19.27;;;-2.00;99.90;;;;;;4844556;29;20191;-90
2020/12/09 00:49:08;;;;;;;57.70;20.33;;;-2.00;99.90;;;;;;4859603;29;20218;-90
2020/12/09 00:51:34;;;;;;;52.20;21.03;;;-2.00;99.90;;;;;;4844737;29;20618;-90
2020/12/09 00:53:59;;;;;;;42.10;18.33;;;-2.10;99.90;;;;;;4863200;29;20628;-90
2020/12/09 00:56:25;;;;;;;56.03;21.77;;;-2.00;99.90;;;;;;4863398;29;20283;-91
2020/12/09 00:58:50;;;;;;;50.83;20.33;;;-2.00;99.90;;;;;;4847688;29;20230;-90
2020/12/09 01:01:16;;;;;;;40.80;17.77;;;-2.00;99.90;;;;;;4864667;29;20688;-90
2020/12/09 01:03:42;;;;;;;48.13;20.13;;;-2.00;99.90;;;;;;4864310;29;20228;-89
2020/12/09 01:06:08;;;;;;;54.10;19.83;;;-2.10;99.90;;;;;;4863013;29;20186;-90
2020/12/09 01:08:35;;;;;;;29.23;15.53;;;-2.10;99.90;;;;;;4864153;29;20213;-90
2020/12/09 01:11:01;;;;;;;39.60;18.33;;;-2.10;99.90;;;;;;4847527;29;20206;-90
2020/12/09 01:13:27;;;;;;;35.57;16.33;;;-2.10;99.90;;;;;;4847553;29;20193;-90
2020/12/09 01:15:53;;;;;;;36.43;17.40;;;0.70;99.90;;;;;;4862806;29;20546;-90
2020/12/09 01:18:19;;;;;;;41.90;17.03;;;-2.30;99.90;;;;;;4864281;29;20194;-89
2020/12/09 01:20:45;;;;;;;37.80;16.57;;;-2.20;99.90;;;;;;4847566;29;20281;-89
2020/12/09 01:23:10;;;;;;;40.70;15.40;;;-2.10;99.90;;;;;;4863768;29;20755;-89
2020/12/09 01:25:36;;;;;;;38.00;19.77;;;-2.20;99.90;;;;;;4862548;29;20260;-90
2020/12/09 01:28:03;;;;;;;37.53;15.80;;;-2.20;99.90;;;;;;4862848;29;20225;-90
2020/12/09 01:30:30;;;;;;;34.73;16.27;;;-0.40;99.90;;;;;;4865291;29;20191;-90
2020/12/09 01:32:56;;;;;;;40.23;17.80;;;-2.20;99.90;;;;;;4872359;29;20329;-87
2020/12/09 01:35:22;;;;;;;42.67;18.67;;;-2.20;99.90;;;;;;4876731;29;20213;-88
2020/12/09 01:37:49;;;;;;;40.27;18.53;;;-0.50;99.90;;;;;;4871050;29;20544;-87
2020/12/09 01:40:16;;;;;;;34.80;16.47;;;-2.20;99.90;;;;;;4869118;29;20598;-89
2020/12/09 01:42:41;;;;;;;39.20;17.57;;;-2.20;99.90;;;;;;4863789;29;20671;-88
2020/12/09 01:45:07;;;;;;;40.70;15.93;;;-0.70;99.90;;;;;;4862287;29;20238;-90
2020/12/09 01:47:33;;;;;;;38.10;16.83;;;-2.00;99.90;;;;;;4863799;29;20237;-90
2020/12/09 01:50:00;;;;;;;36.73;16.00;;;-0.60;99.90;;;;;;4869179;29;20214;-86
2020/12/09 01:52:27;;;;;;;37.27;17.17;;;-2.20;99.90;;;;;;4868374;29;20190;-86
2020/12/09 01:54:55;;;;;;;37.03;16.97;;;-0.60;99.90;;;;;;4867946;29;20195;-87
2020/12/09 01:57:22;;;;;;;37.27;15.93;;;-2.20;99.90;;;;;;4847975;29;20211;-89
2020/12/09 01:59:48;;;;;;;39.83;14.53;;;-2.20;99.90;;;;;;4862398;29;20196;-94
2020/12/09 02:02:15;;;;;;;48.87;19.30;;;-0.90;99.90;;;;;;4847061;29;20193;-90
2020/12/09 02:04:41;;;;;;;37.53;17.03;;;0.30;99.90;;;;;;4862644;29;20192;-90
2020/12/09 02:07:07;;;;;;;40.83;16.37;;;-0.20;99.90;;;;;;4861842;29;20215;-91
2020/12/09 02:09:33;;;;;;;38.97;18.70;;;-2.10;99.90;;;;;;4861408;29;20215;-88
2020/12/09 02:11:59;;;;;;;38.90;18.40;;;-2.20;99.90;;;;;;4862094;29;20187;-91
2020/12/09 02:14:25;;;;;;;42.93;18.23;;;0.10;99.90;;;;;;4862092;29;20294;-91
2020/12/09 02:16:59;;;;;;;33.97;15.43;;;-2.30;99.90;;;;;;4862911;29;20183;-91
2020/12/09 02:19:26;;;;;;;37.53;15.90;;;-1.20;99.90;;;;;;4858420;29;20218;-90
2020/12/09 02:21:52;;;;;;;42.90;17.77;;;-2.20;99.90;;;;;;4861414;29;20560;-89
2020/12/09 02:24:19;;;;;;;38.27;15.77;;;-2.20;99.90;;;;;;4861404;29;20193;-90
2020/12/09 02:26:47;;;;;;;40.97;17.70;;;-2.20;99.90;;;;;;4861876;29;20190;-90
2020/12/09 02:29:13;;;;;;;37.27;17.20;;;-0.80;99.90;;;;;;4861474;29;20195;-90
2020/12/09 02:31:39;;;;;;;37.23;17.03;;;-1.50;99.90;;;;;;4861658;29;20680;-90
2020/12/09 02:34:06;;;;;;;46.30;18.30;;;-0.70;99.90;;;;;;4862675;29;20693;-90
2020/12/09 02:36:32;;;;;;;48.93;19.07;;;-2.20;99.90;;;;;;4861650;29;20187;-92
2020/12/09 02:38:59;;;;;;;51.00;20.50;;;-2.00;99.90;;;;;;4862945;29;20198;-92
2020/12/09 02:41:24;;;;;;;44.37;18.00;;;-0.50;99.90;;;;;;4863231;29;20184;-92
2020/12/09 02:43:50;;;;;;;39.33;16.23;;;-1.70;99.90;;;;;;4845994;29;20199;-90
2020/12/09 02:46:16;;;;;;;41.17;18.57;;;-0.90;99.90;;;;;;4862699;29;20178;-90
2020/12/09 02:48:42;;;;;;;36.10;16.47;;;-0.90;99.90;;;;;;4861418;29;20216;-90
2020/12/09 02:51:07;;;;;;;47.00;19.83;;;-2.20;99.90;;;;;;4862398;29;20194;-90
2020/12/09 02:53:33;;;;;;;48.90;19.53;;;-0.60;99.90;;;;;;4862674;29;20614;-91
2020/12/09 02:55:59;;;;;;;47.57;18.27;;;-0.40;99.90;;;;;;4861534;29;20638;-90
2020/12/09 02:58:25;;;;;;;41.87;17.20;;;-0.60;99.90;;;;;;4861057;29;20200;-90
2020/12/09 03:00:52;;;;;;;44.13;16.43;;;-0.10;99.90;;;;;;4845932;29;20237;-91
2020/12/09 03:03:17;;;;;;;38.90;16.23;;;-1.40;99.90;;;;;;4845911;29;20194;-91
2020/12/09 03:05:43;;;;;;;48.67;19.07;;;-1.00;99.90;;;;;;4860938;29;20196;-91
2020/12/09 03:08:09;;;;;;;36.43;17.07;;;-0.90;99.90;;;;;;4845438;29;20249;-91
2020/12/09 03:10:35;;;;;;;44.27;18.03;;;-1.20;99.90;;;;;;4845478;29;20247;-90
2020/12/09 03:13:01;;;;;;;48.10;18.97;;;-0.40;99.90;;;;;;4860514;29;20325;-90
2020/12/09 03:15:27;;;;;;;37.33;16.47;;;-0.10;99.90;;;;;;4845220;29;20247;-92
2020/12/09 03:17:53;;;;;;;42.90;17.90;;;0.20;99.90;;;;;;4861473;29;20252;-96
2020/12/09 03:20:19;;;;;;;41.20;16.60;;;-1.70;99.90;;;;;;4861915;29;20626;-90
2020/12/09 03:22:44;;;;;;;45.97;19.70;;;-0.80;99.90;;;;;;4845116;29;20190;-90
2020/12/09 03:25:10;;;;;;;38.93;18.10;;;-2.10;99.90;;;;;;4830061;29;20199;-89
2020/12/09 03:27:36;;;;;;;36.10;16.97;;;0.80;99.90;;;;;;4860579;29;20278;-91
2020/12/09 03:30:03;;;;;;;41.17;17.23;;;-0.50;99.90;;;;;;4861683;29;20217;-92
2020/12/09 03:32:29;;;;;;;41.30;18.17;;;-0.70;99.90;;;;;;4845146;29;20252;-89
2020/12/09 03:34:54;;;;;;;39.47;17.10;;;-2.10;99.90;;;;;;4861616;29;20561;-91
2020/12/09 03:37:20;;;;;;;41.17;17.50;;;-0.70;99.90;;;;;;4860607;29;20193;-91
2020/12/09 03:39:45;;;;;;;40.30;18.03;;;-2.10;99.90;;;;;;4860481;29;20547;-92
2020/12/09 03:42:11;;;;;;;43.33;17.73;;;-0.80;99.90;;;;;;4860385;29;20196;-91
2020/12/09 03:44:37;;;;;;;44.97;18.87;;;-2.00;99.90;;;;;;4860381;29;20249;-90
2020/12/09 03:47:05;;;;;;;39.80;17.70;;;-2.00;99.90;;;;;;4859897;29;20287;-91
2020/12/09 03:49:30;;;;;;;44.60;18.83;;;-2.00;99.90;;;;;;4861540;29;20275;-91
2020/12/09 03:51:56;;;;;;;46.17;19.50;;;-2.00;99.90;;;;;;4861517;29;20745;-91
2020/12/09 03:54:22;;;;;;;42.47;18.13;;;-2.00;99.90;;;;;;4861250;29;20182;-90
2020/12/09 03:56:47;;;;;;;46.33;19.10;;;-2.00;99.90;;;;;;4860185;29;20728;-90
2020/12/09 03:59:13;;;;;;;50.97;20.73;;;-0.40;99.90;;;;;;4860897;29;20191;-91
2020/12/09 04:01:38;;;;;;;45.67;17.70;;;0.30;99.90;;;;;;4861139;29;20545;-93
2020/12/09 04:04:04;;;;;;;43.07;19.30;;;-2.00;99.90;;;;;;4846512;29;20239;-90
2020/12/09 04:06:30;;;;;;;48.80;19.90;;;-1.80;99.90;;;;;;4860801;29;20529;-92
2020/12/09 04:08:56;;;;;;;50.40;20.17;;;-2.00;99.90;;;;;;4861256;29;20710;-92
2020/12/09 04:11:21;;;;;;;42.97;19.03;;;0.00;99.90;;;;;;4861058;29;20701;-93
2020/12/09 04:13:47;;;;;;;44.97;18.50;;;-2.00;99.90;;;;;;4860172;29;20192;-89
2020/12/09 04:16:12;;;;;;;45.13;16.93;;;-0.30;99.90;;;;;;4860153;29;20192;-91
2020/12/09 04:18:38;;;;;;;42.33;18.30;;;-2.10;99.90;;;;;;4861379;29;20719;-93
2020/12/09 04:21:04;;;;;;;49.10;18.43;;;-1.80;99.90;;;;;;4861752;29;20191;-91
2020/12/09 04:23:30;;;;;;;50.00;18.87;;;-0.30;99.90;;;;;;4860216;29;20209;-91
2020/12/09 04:25:55;;;;;;;43.13;18.40;;;-0.80;99.90;;;;;;4844734;29;20197;-92
2020/12/09 04:28:21;;;;;;;41.77;17.83;;;-1.90;99.90;;;;;;4862925;29;20213;-90
2020/12/09 04:30:47;;;;;;;50.03;20.20;;;0.50;99.90;;;;;;4864307;29;20240;-90
2020/12/09 04:33:13;;;;;;;46.10;18.90;;;-0.50;99.90;;;;;;4863477;29;20272;-90
2020/12/09 04:35:39;;;;;;;45.77;18.07;;;-1.10;99.90;;;;;;4865045;29;20182;-90
2020/12/09 04:38:07;;;;;;;45.23;19.93;;;-1.50;99.90;;;;;;4864652;29;20197;-90
2020/12/09 04:40:33;;;;;;;47.87;20.40;;;0.70;99.90;;;;;;4863820;29;20186;-92
2020/12/09 04:43:01;;;;;;;50.63;18.97;;;0.90;99.90;;;;;;4864882;29;20183;-93
2020/12/09 04:45:28;;;;;;;50.50;18.23;;;-2.20;99.90;;;;;;4863948;29;20180;-91
2020/12/09 04:48:08;;;;;;;43.03;17.83;;;-1.60;99.90;;;;;;4864563;29;20221;-92
2020/12/09 04:50:54;;;;;;;46.83;19.77;;;-1.90;99.90;;;;;;4875657;29;20256;-92
2020/12/09 04:53:28;;;;;;;42.50;18.53;;;-2.10;99.90;;;;;;4884113;29;20170;-93
2020/12/09 04:55:58;;;;;;;43.67;18.67;;;-1.20;99.90;;;;;;4865862;29;20195;-93
2020/12/09 04:58:53;;;;;;;43.27;17.93;;;0.70;99.90;;;;;;4872589;29;20190;-95
2020/12/09 05:01:18;;;;;;;48.20;20.77;;;-1.90;99.90;;;;;;4865396;29;20191;-94
2020/12/09 05:03:45;;;;;;;35.97;16.67;;;-0.70;99.90;;;;;;4863492;29;20188;-94
2020/12/09 05:06:14;;;;;;;49.23;20.47;;;-0.20;99.90;;;;;;4864039;29;20189;-96
2020/12/09 05:08:49;;;;;;;48.47;21.00;;;0.10;99.90;;;;;;4875007;29;20305;-93
2020/12/09 05:11:15;;;;;;;40.20;18.13;;;-1.40;99.90;;;;;;4883441;29;20611;-94
2020/12/09 05:13:43;;;;;;;43.23;18.47;;;-2.20;99.90;;;;;;4896898;29;20188;-95
2020/12/09 05:16:16;;;;;;;43.27;18.33;;;-2.20;99.90;;;;;;4881764;29;20200;-94
2020/12/09 05:18:43;;;;;;;48.00;20.20;;;-0.40;99.90;;;;;;4882768;29;20186;-92
2020/12/09 05:21:18;;;;;;;47.50;19.00;;;-2.20;99.90;;;;;;4877356;29;20200;-93
2020/12/09 05:23:47;;;;;;;48.40;19.57;;;-0.30;99.90;;;;;;4864427;29;20214;-93
2020/12/09 05:26:19;;;;;;;47.97;18.87;;;-1.90;99.90;;;;;;4863606;29;20680;-93
2020/12/09 05:28:46;;;;;;;45.27;18.37;;;-0.40;99.90;;;;;;4868980;29;20366;-94
2020/12/09 05:31:21;;;;;;;38.83;18.20;;;-2.20;99.90;;;;;;4849051;29;20237;-92
2020/12/09 05:33:47;;;;;;;49.97;21.57;;;-2.20;99.90;;;;;;4868356;29;20250;-95
2020/12/09 05:36:13;;;;;;;50.60;19.93;;;-0.70;99.90;;;;;;4873223;29;20269;-93
2020/12/09 05:38:39;;;;;;;47.00;19.47;;;-1.50;99.90;;;;;;4868553;29;20216;-94
2020/12/09 05:41:12;;;;;;;54.90;21.47;;;-0.40;99.90;;;;;;4851864;29;20201;-93
2020/12/09 05:43:45;;;;;;;46.90;19.23;;;-0.90;99.90;;;;;;4875208;29;20615;-91
2020/12/09 05:46:10;;;;;;;47.00;20.13;;;-2.30;99.90;;;;;;4874331;29;20179;-90
2020/12/09 05:48:37;;;;;;;47.83;20.33;;;-0.30;99.90;;;;;;4864439;29;20705;-90
2020/12/09 05:51:03;;;;;;;50.00;20.13;;;-2.30;99.90;;;;;;4865669;29;20192;-90
2020/12/09 05:53:34;;;;;;;46.27;19.50;;;-0.90;99.90;;;;;;4877291;29;20184;-92
2020/12/09 05:56:21;;;;;;;45.53;20.73;;;-0.50;99.90;;;;;;4877596;29;20654;-90
2020/12/09 05:58:49;;;;;;;41.47;19.33;;;-0.90;99.90;;;;;;4870386;29;20221;-91
2020/12/09 06:01:24;;;;;;;58.23;19.53;;;-2.20;99.90;;;;;;4874252;29;20676;-92
2020/12/09 06:03:54;;;;;;;48.60;20.17;;;-2.20;99.90;;;;;;4871719;29;20190;-93
2020/12/09 06:06:25;;;;;;;44.10;19.07;;;-2.30;99.90;;;;;;4874249;29;20181;-91
2020/12/09 06:08:56;;;;;;;60.90;21.07;;;-0.40;99.90;;;;;;4872177;29;20211;-93
2020/12/09 06:11:27;;;;;;;54.03;20.13;;;-2.20;99.90;;;;;;4868425;29;20198;-94
2020/12/09 06:13:52;;;;;;;52.80;20.27;;;-0.60;99.90;;;;;;4866731;29;20179;-94
2020/12/09 06:16:20;;;;;;;53.97;22.63;;;-0.70;99.90;;;;;;4862419;29;20222;-92
2020/12/09 06:18:54;;;;;;;52.97;21.30;;;0.00;99.90;;;;;;4860558;29;20190;-92
2020/12/09 06:21:23;;;;;;;48.57;19.63;;;-2.20;99.90;;;;;;4861219;29;20186;-92
2020/12/09 06:23:52;;;;;;;49.53;19.10;;;-2.20;99.90;;;;;;4860231;29;20182;-92
2020/12/09 06:26:18;;;;;;;48.90;19.70;;;-1.50;99.90;;;;;;4859827;29;20206;-90
2020/12/09 06:28:48;;;;;;;47.10;19.53;;;-2.20;99.90;;;;;;4858462;29;20734;-90
2020/12/09 06:31:17;;;;;;;42.20;18.67;;;-2.20;99.90;;;;;;4860334;29;20189;-91
2020/12/09 06:33:47;;;;;;;47.57;18.60;;;-2.20;99.90;;;;;;4859971;29;20235;-91
2020/12/09 06:36:26;;;;;;;46.30;18.53;;;-0.40;99.90;;;;;;4863696;29;20224;-91
2020/12/09 06:39:17;;;;;;;53.60;22.73;;;-2.10;99.90;;;;;;4864002;29;20210;-90
2020/12/09 06:42:00;;;;;;;71.47;25.10;;;-2.20;99.90;;;;;;4865597;29;20180;-91
2020/12/09 06:44:30;;;;;;;120.13;33.47;;;-2.20;99.90;;;;;;4865373;29;20221;-92
2020/12/09 06:46:57;;;;;;;78.97;24.33;;;-2.20;99.90;;;;;;4870117;29;20181;-92
2020/12/09 06:49:29;;;;;;;65.43;21.93;;;-2.20;99.90;;;;;;4853657;29;20196;-92
2020/12/09 06:52:09;;;;;;;66.00;20.47;;;-1.90;99.90;;;;;;4864267;29;20221;-91
2020/12/09 06:54:45;;;;;;;133.93;35.87;;;-2.20;99.90;;;;;;4862264;29;20167;-89
2020/12/09 06:57:29;;;;;;;79.13;26.93;;;-2.20;99.90;;;;;;4860757;29;20168;-90
2020/12/09 07:00:10;;;;;;;92.97;30.20;;;-2.20;99.90;;;;;;4860426;29;20186;-89
2020/12/09 07:02:37;;;;;;;72.43;26.73;;;-1.50;99.90;;;;;;4861003;29;20636;-90
2020/12/09 07:05:05;;;;;;;70.20;28.10;;;-2.10;99.90;;;;;;4862894;29;20213;-90
2020/12/09 07:07:36;;;;;;;60.87;22.37;;;-2.20;99.90;;;;;;4871454;29;20200;-91
2020/12/09 07:10:05;;;;;;;61.90;23.77;;;-2.20;99.90;;;;;;4880861;29;20179;-90
2020/12/09 07:12:31;;;;;;;49.63;20.23;;;-1.10;99.90;;;;;;4881282;29;20183;-93
2020/12/09 07:14:58;;;;;;;54.43;21.20;;;-1.60;99.90;;;;;;4879185;29;20261;-91
2020/12/09 07:17:26;;;;;;;49.13;19.90;;;-0.80;99.90;;;;;;4880168;29;20189;-93
2020/12/09 07:19:52;;;;;;;52.53;20.50;;;-2.10;99.90;;;;;;4881243;29;20181;-94
2020/12/09 07:22:19;;;;;;;52.83;19.70;;;-1.40;99.90;;;;;;4881616;29;20175;-91
2020/12/09 07:24:45;;;;;;;50.67;21.47;;;-0.70;99.90;;;;;;4879685;29;20638;-91
2020/12/09 07:27:12;;;;;;;46.93;17.40;;;-0.70;99.90;;;;;;4863798;29;20675;-90
2020/12/09 07:29:43;;;;;;;40.63;18.27;;;-2.10;99.90;;;;;;4879014;29;20186;-91
2020/12/09 07:32:09;;;;;;;53.57;21.43;;;-0.40;99.90;;;;;;4880790;29;20187;-89
2020/12/09 07:34:56;;;;;;;60.90;22.30;;;-0.20;99.90;;;;;;4881668;29;20178;-93
2020/12/09 07:37:24;;;;;;;47.77;21.23;;;-1.90;99.90;;;;;;4880117;29;20207;-93
2020/12/09 07:39:52;;;;;;;50.23;21.47;;;-2.20;99.90;;;;;;4881371;29;20621;-90
2020/12/09 07:42:20;;;;;;;54.03;22.20;;;-1.80;99.90;;;;;;4884184;29;20172;-92
2020/12/09 07:44:47;;;;;;;64.43;23.00;;;-0.60;99.90;;;;;;4889503;29;20182;-91
2020/12/09 07:47:19;;;;;;;51.50;21.27;;;-0.70;99.90;;;;;;4868115;29;20570;-93
2020/12/09 07:49:53;;;;;;;58.43;22.93;;;-0.70;99.90;;;;;;4872803;29;20229;-90
2020/12/09 07:52:24;;;;;;;56.27;23.60;;;-0.90;99.90;;;;;;4861199;29;20192;-92
2020/12/09 07:55:03;;;;;;;59.07;21.33;;;-2.10;99.90;;;;;;4860836;29;20184;-93
2020/12/09 07:57:36;;;;;;;56.30;23.60;;;-2.00;99.90;;;;;;4860635;29;20189;-93
2020/12/09 08:00:12;;;;;;;67.90;30.53;;;-2.00;99.90;;;;;;4863557;29;20176;-93
2020/12/09 08:02:40;;;;;;;127.63;71.87;;;-2.00;99.90;;;;;;4861255;29;20170;-95
2020/12/09 08:05:19;;;;;;;62.83;26.43;;;-1.60;99.90;;;;;;4865859;29;20181;-93
2020/12/09 08:07:48;;;;;;;85.57;31.23;;;-2.00;99.90;;;;;;4871770;29;20231;-93
2020/12/09 08:10:16;;;;;;;67.27;24.17;;;-1.50;99.90;;;;;;4866145;29;20189;-94
2020/12/09 08:12:42;;;;;;;159.20;59.03;;;-0.30;99.90;;;;;;4863577;29;20218;-92
2020/12/09 08:15:09;;;;;;;103.70;55.40;;;-1.90;99.90;;;;;;4862039;29;20701;-93
2020/12/09 08:17:35;;;;;;;79.40;33.53;;;-1.20;99.90;;;;;;4860434;29;20206;-91
2020/12/09 08:20:07;;;;;;;58.67;23.40;;;0.20;99.90;;;;;;4844929;29;20185;-90
2020/12/09 08:22:56;;;;;;;56.47;22.27;;;-1.80;99.90;;;;;;4859519;29;20179;-92
2020/12/09 08:25:24;;;;;;;47.10;18.70;;;-1.80;99.90;;;;;;4859439;29;20193;-92
2020/12/09 08:27:51;;;;;;;45.87;19.70;;;-1.30;99.90;;;;;;4863223;29;20200;-92
2020/12/09 08:30:18;;;;;;;53.70;22.47;;;-0.30;99.90;;;;;;4861180;29;20700;-92
2020/12/09 08:33:01;;;;;;;57.87;24.23;;;-1.80;99.90;;;;;;4860833;29;20715;-93
2020/12/09 08:35:49;;;;;;;50.83;21.53;;;-1.70;99.90;;;;;;4861613;29;20650;-92
2020/12/09 08:38:25;;;;;;;49.57;19.97;;;-1.70;99.90;;;;;;4853457;29;20233;-94
2020/12/09 08:40:53;;;;;;;62.70;23.10;;;-1.80;99.90;;;;;;4861778;29;20212;-92
2020/12/09 08:43:21;;;;;;;50.47;22.03;;;-1.30;99.90;;;;;;4865132;29;20627;-90
2020/12/09 08:45:51;;;;;;;63.77;25.17;;;0.00;99.90;;;;;;4948527;23;20201;-93
2020/12/09 08:48:18;;;;;;;55.33;22.83;;;-0.30;99.90;;;;;;4870594;29;20255;-94
2020/12/09 08:50:49;;;;;;;52.30;20.13;;;-1.80;99.90;;;;;;4872735;29;20188;-90
2020/12/09 08:53:15;;;;;;;49.93;20.37;;;-1.80;99.90;;;;;;4879639;29;20177;-92
2020/12/09 08:55:42;;;;;;;59.30;22.67;;;1.30;99.90;;;;;;4863914;29;20193;-90
2020/12/09 08:58:09;;;;;;;54.33;21.73;;;0.00;99.90;;;;;;4863662;29;20190;-90
2020/12/09 09:00:36;;;;;;;51.60;20.57;;;-1.70;99.90;;;;;;4870897;29;20206;-91
2020/12/09 09:03:03;;;;;;;54.83;19.10;;;-1.70;99.90;;;;;;4885376;29;20220;-90
2020/12/09 09:05:29;;;;;;;57.50;21.47;;;0.30;99.90;;;;;;4889298;29;20655;-93
2020/12/09 09:07:55;;;;;;;124.17;36.13;;;-1.70;99.90;;;;;;4891865;29;20251;-87
2020/12/09 09:10:20;;;;;;;163.07;47.00;;;0.10;99.90;;;;;;4879537;29;20186;-88
2020/12/09 09:12:46;;;;;;;165.80;43.33;;;-1.80;99.90;;;;;;5132784;23;20233;-87
2020/12/09 09:15:12;;;;;;;50.57;18.67;;;0.90;99.90;;;;;;4897792;29;20575;-88
2020/12/09 09:17:37;;;;;;;58.50;21.07;;;-0.60;99.90;;;;;;4891554;29;20198;-88
2020/12/09 09:20:05;;;;;;;44.00;18.93;;;0.50;99.90;;;;;;4897035;29;20206;-91
2020/12/09 09:22:31;;;;;;;61.67;20.20;;;-1.30;99.90;;;;;;4885453;29;20181;-91
2020/12/09 09:24:57;;;;;;;99.57;41.30;;;-0.70;99.90;;;;;;4890277;29;20386;-89
2020/12/09 09:27:23;;;;;;;60.53;25.37;;;-1.70;99.90;;;;;;4899276;29;20213;-90
2020/12/09 09:29:48;;;;;;;71.50;23.33;;;-1.50;99.90;;;;;;4898900;29;20178;-86
2020/12/09 09:32:14;;;;;;;56.53;19.87;;;-1.40;99.90;;;;;;4898341;29;20186;-88
2020/12/09 09:34:40;;;;;;;42.63;18.53;;;-1.70;99.90;;;;;;4906566;29;20637;-88
2020/12/09 09:37:09;;;;;;;48.97;19.30;;;-1.70;99.90;;;;;;4898998;29;20550;-91
2020/12/09 09:39:36;;;;;;;45.30;20.33;;;-0.60;99.90;;;;;;4882792;29;20639;-86
2020/12/09 09:42:03;;;;;;;45.27;16.63;;;-1.70;99.90;;;;;;4897753;29;20184;-87
2020/12/09 09:44:28;;;;;;;48.43;19.20;;;-1.70;99.90;;;;;;4882382;29;20178;-88
2020/12/09 09:46:59;;;;;;;52.97;20.53;;;-0.10;99.90;;;;;;4897174;29;20190;-92
2020/12/09 09:49:25;;;;;;;49.17;19.80;;;-1.70;99.90;;;;;;4890107;29;20264;-90
2020/12/09 09:51:52;;;;;;;55.27;20.17;;;-0.10;99.90;;;;;;4882242;29;20195;-94
2020/12/09 09:54:19;;;;;;;59.20;22.03;;;-1.70;99.90;;;;;;4907879;29;20215;-94
2020/12/09 09:56:45;;;;;;;57.60;19.23;;;-0.30;99.90;;;;;;4894709;29;20186;-95
2020/12/09 09:59:10;;;;;;;45.23;17.07;;;-0.50;99.90;;;;;;4873583;29;20180;-94
2020/12/09 10:01:36;;;;;;;46.80;18.93;;;-1.70;99.90;;;;;;4880897;29;20241;-91
2020/12/09 10:04:06;;;;;;;48.97;16.97;;;0.50;99.90;;;;;;4881709;29;20228;-95
2020/12/09 10:06:32;;;;;;;57.53;22.10;;;-1.60;99.90;;;;;;4907562;29;20182;-96
2020/12/09 10:08:58;;;;;;;56.83;21.03;;;-1.60;99.90;;;;;;4864013;29;20213;-95
2020/12/09 10:11:23;;;;;;;59.40;22.43;;;-1.10;99.90;;;;;;4876736;29;20196;-92
2020/12/09 10:13:49;;;;;;;49.73;20.70;;;0.30;99.90;;;;;;4876342;29;20236;-92
2020/12/09 10:16:25;;;;;;;65.97;23.90;;;-1.50;99.90;;;;;;4862914;29;20261;-91
2020/12/09 10:18:51;;;;;;;60.37;20.20;;;-1.50;99.90;;;;;;4876636;29;20558;-94
2020/12/09 10:21:28;;;;;;;55.43;20.57;;;0.00;99.90;;;;;;4912047;29;20861;-94
2020/12/09 10:23:55;;;;;;;52.50;20.33;;;0.40;99.90;;;;;;4896612;29;20191;-95
2020/12/09 10:26:28;;;;;;;59.83;23.67;;;-1.60;99.90;;;;;;4876687;29;20199;-93
2020/12/09 10:28:55;;;;;;;64.93;24.17;;;-0.10;99.90;;;;;;4892507;29;20727;-92
2020/12/09 10:31:21;;;;;;;66.33;23.70;;;-0.50;99.90;;;;;;4877603;29;20221;-92
2020/12/09 10:33:47;;;;;;;49.90;19.10;;;-1.20;99.90;;;;;;4910048;29;20218;-93
2020/12/09 10:36:15;;;;;;;51.70;17.90;;;-0.50;99.90;;;;;;4869080;29;20182;-93
2020/12/09 10:38:41;;;;;;;54.43;20.80;;;-1.10;99.90;;;;;;4886395;29;20566;-91
2020/12/09 10:41:09;;;;;;;53.87;21.40;;;-1.40;99.90;;;;;;4881111;29;20239;-92
2020/12/09 10:43:38;;;;;;;62.23;24.30;;;-1.40;99.90;;;;;;4881065;29;20264;-89
2020/12/09 10:46:05;;;;;;;59.13;21.83;;;-0.60;99.90;;;;;;4895283;29;20190;-89
2020/12/09 10:48:30;;;;;;;55.83;21.17;;;0.10;99.90;;;;;;4896755;29;20270;-92
2020/12/09 10:50:56;;;;;;;61.17;22.97;;;-1.40;99.90;;;;;;4882451;29;20219;-94
2020/12/09 10:53:22;;;;;;;55.30;21.80;;;-1.40;99.90;;;;;;4880576;29;20191;-94
2020/12/09 10:55:47;;;;;;;55.60;20.93;;;-0.20;99.90;;;;;;4896091;29;20270;-93
2020/12/09 10:58:13;;;;;;;49.70;20.60;;;-1.40;99.90;;;;;;4866807;29;20196;-95
2020/12/09 11:00:38;;;;;;;65.43;23.67;;;-1.30;99.90;;;;;;4898285;29;20268;-92
2020/12/09 11:03:04;;;;;;;53.07;21.10;;;-1.30;99.90;;;;;;4898968;29;20651;-93
2020/12/09 11:05:30;;;;;;;46.33;19.53;;;-1.20;99.90;;;;;;4899590;29;20272;-91
2020/12/09 11:07:55;;;;;;;65.00;24.80;;;-1.30;99.90;;;;;;4882614;29;20232;-95
2020/12/09 11:10:21;;;;;;;53.20;22.13;;;-1.20;99.90;;;;;;4878637;29;20181;-91
2020/12/09 11:12:46;;;;;;;53.40;20.90;;;0.80;99.90;;;;;;4883800;29;20245;-93
2020/12/09 11:15:12;;;;;;;53.67;21.87;;;-0.30;99.90;;;;;;4901248;29;20173;-94
2020/12/09 11:17:38;;;;;;;64.60;24.87;;;-1.20;99.90;;;;;;4875652;29;20194;-92
2020/12/09 11:20:04;;;;;;;59.70;24.40;;;-0.80;99.90;;;;;;4908056;29;20284;-92
2020/12/09 11:22:30;;;;;;;75.30;27.83;;;0.40;99.90;;;;;;4881542;29;20267;-92
2020/12/09 11:24:55;;;;;;;82.27;27.87;;;-1.00;99.90;;;;;;4896281;29;20212;-92
2020/12/09 11:27:21;;;;;;;76.07;25.70;;;-0.70;99.90;;;;;;4883283;29;20242;-89
2020/12/09 11:29:47;;;;;;;56.90;22.10;;;-0.60;99.90;;;;;;4889756;29;20261;-93
2020/12/09 11:32:13;;;;;;;61.70;24.40;;;-1.00;99.90;;;;;;4889872;29;20255;-91
2020/12/09 11:34:39;;;;;;;62.23;25.03;;;0.60;99.90;;;;;;4889545;29;20264;-94
2020/12/09 11:37:04;;;;;;;51.37;20.17;;;0.90;99.90;;;;;;4890579;29;20218;-93
2020/12/09 11:39:30;;;;;;;85.33;27.97;;;-0.50;99.90;;;;;;4880635;29;20267;-94
2020/12/09 11:42:01;;;;;;;53.00;21.17;;;-1.00;99.90;;;;;;4903356;29;20232;-93
2020/12/09 11:44:26;;;;;;;61.47;20.30;;;0.00;99.90;;;;;;4904761;29;20512;-95
2020/12/09 11:46:52;;;;;;;55.80;20.27;;;-1.00;99.90;;;;;;4905294;29;20214;-96
2020/12/09 11:49:18;;;;;;;43.50;19.13;;;0.70;99.90;;;;;;4896429;29;20220;-90
2020/12/09 11:51:48;;;;;;;65.57;22.90;;;0.40;99.90;;;;;;4879238;29;20193;-94
2020/12/09 11:54:14;;;;;;;58.27;21.47;;;-1.00;99.90;;;;;;4889114;29;20172;-93
2020/12/09 11:56:40;;;;;;;66.67;24.07;;;-0.90;99.90;;;;;;4869462;29;20215;-92
2020/12/09 11:59:05;;;;;;;64.33;27.33;;;1.30;99.90;;;;;;4852595;29;20193;-91
2020/12/09 12:01:31;;;;;;;74.07;26.43;;;0.30;99.90;;;;;;4879935;29;20576;-94
2020/12/09 12:03:57;;;;;;;71.07;25.07;;;0.50;99.90;;;;;;4865507;29;20195;-93
2020/12/09 12:06:24;;;;;;;89.57;29.60;;;-0.60;99.90;;;;;;4851331;29;20184;-92
2020/12/09 12:08:54;;;;;;;78.60;28.27;;;-1.00;99.90;;;;;;4880692;29;20214;-93
2020/12/09 12:11:21;;;;;;;61.77;22.53;;;-0.90;99.90;;;;;;4868535;29;20185;-95
2020/12/09 12:13:48;;;;;;;63.63;23.50;;;-0.90;99.90;;;;;;4886150;29;20249;-95
2020/12/09 12:16:18;;;;;;;55.13;24.07;;;0.10;99.90;;;;;;4866514;29;20203;-95
2020/12/09 12:18:44;;;;;;;56.80;23.43;;;-1.00;99.90;;;;;;4867767;29;20280;-95
2020/12/09 12:21:14;;;;;;;56.33;25.13;;;0.90;99.90;;;;;;4883226;29;20264;-94
2020/12/09 12:23:41;;;;;;;54.43;22.23;;;0.30;99.90;;;;;;4901710;29;20187;-94
2020/12/09 12:26:07;;;;;;;85.07;31.00;;;1.30;99.90;;;;;;4884555;29;20256;-95
2020/12/09 12:28:32;;;;;;;54.60;23.47;;;-0.90;99.90;;;;;;4887868;29;20304;-95
2020/12/09 12:30:58;;;;;;;62.90;26.13;;;-0.80;99.90;;;;;;4900562;29;20221;-95